createdAt,value
2023-01-07T00:00:04.731Z,6.18
2023-01-07T00:03:12.997Z,5.93
2023-01-07T00:06:24.583Z,6.07
2023-01-07T00:09:25.895Z,5.95
2023-01-07T00:12:26.909Z,6.28
2023-01-07T00:15:27.944Z,6.28
2023-01-07T00:18:28.948Z,6.38
2023-01-07T00:21:30.845Z,6.47
2023-01-07T00:24:31.638Z,6.03
2023-01-07T00:27:32.816Z,6.07
2023-01-07T00:30:34.161Z,5.93
2023-01-07T00:33:35.777Z,5.95
2023-01-07T00:36:39.966Z,6.30
2023-01-07T00:39:42.007Z,6.65
2023-01-07T00:42:54.973Z,6.88
2023-01-07T00:45:56.121Z,6.97
2023-01-07T00:48:57.319Z,6.60
2023-01-07T00:51:58.336Z,8.68
2023-01-07T00:54:59.685Z,7.05
2023-01-07T00:58:00.849Z,6.95
2023-01-07T01:01:03.730Z,6.60
2023-01-07T01:04:06.471Z,6.63
2023-01-07T01:07:07.595Z,5.85
2023-01-07T01:10:13.253Z,6.20
2023-01-07T01:13:18.438Z,5.95
2023-01-07T01:16:19.844Z,7.68
2023-01-07T01:19:20.975Z,8.68
2023-01-07T01:22:21.892Z,7.55
2023-01-07T01:25:22.764Z,7.68
2023-01-07T01:28:23.529Z,9.02
2023-01-07T01:31:24.432Z,8.60
2023-01-07T01:34:27.562Z,8.80
2023-01-07T01:37:28.303Z,9.30
2023-01-07T01:40:31.415Z,9.32
2023-01-07T01:43:36.564Z,9.93
2023-01-07T01:46:45.172Z,9.50
2023-01-07T01:49:56.575Z,10.30
2023-01-07T01:53:20.065Z,11.63
2023-01-07T01:56:30.739Z,12.57
2023-01-07T01:59:39.452Z,12.57
2023-01-07T02:02:57.937Z,13.77
2023-01-07T02:06:00.387Z,13.43
2023-01-07T02:09:01.804Z,14.45
2023-01-07T02:12:16.484Z,15.38
2023-01-07T02:15:54.204Z,14.25
2023-01-07T02:19:22.881Z,12.93
2023-01-07T02:22:49.191Z,13.57
2023-01-07T02:26:11.933Z,14.07
2023-01-07T02:30:11.270Z,12.60
2023-01-07T02:34:06.636Z,14.68
2023-01-07T02:37:21.301Z,13.40
2023-01-07T02:40:59.021Z,12.52
2023-01-07T02:44:15.083Z,13.88
2023-01-07T02:47:29.620Z,12.38
2023-01-07T02:50:33.305Z,12.82
2023-01-07T02:53:34.630Z,12.95
2023-01-07T02:57:22.197Z,12.32
2023-01-07T03:00:40.056Z,12.48
2023-01-07T03:04:24.462Z,11.50
2023-01-07T03:07:35.818Z,12.23
2023-01-07T03:10:58.707Z,11.40
2023-01-07T03:14:23.157Z,11.52
2023-01-07T03:17:34.695Z,11.57
2023-01-07T03:20:41.213Z,12.27
2023-01-07T03:23:51.223Z,12.00
2023-01-07T03:26:58.588Z,12.07
2023-01-07T03:30:02.882Z,12.77
2023-01-07T03:33:24.294Z,12.65
2023-01-07T03:36:35.954Z,13.50
2023-01-07T03:39:40.661Z,14.50
2023-01-07T03:42:42.724Z,14.48
2023-01-07T03:48:53.290Z,14.13
2023-01-07T03:51:54.868Z,15.10
2023-01-07T03:54:56.442Z,14.68
2023-01-07T03:57:58.215Z,13.82
2023-01-07T04:01:00.287Z,14.75
2023-01-07T04:04:03.460Z,13.45
2023-01-07T04:07:05.104Z,14.35
2023-01-07T04:10:08.293Z,13.75
2023-01-07T04:13:09.900Z,13.48
2023-01-07T04:16:11.830Z,14.30
2023-01-07T04:19:13.150Z,14.55
2023-01-07T04:22:15.472Z,13.70
2023-01-07T04:25:17.107Z,14.93
2023-01-07T04:28:19.588Z,14.60
2023-01-07T04:31:21.232Z,16.23
2023-01-07T04:34:22.403Z,15.23
2023-01-07T04:37:23.746Z,16.00
2023-01-07T04:40:25.779Z,16.23
2023-01-07T04:43:26.917Z,20.70
2023-01-07T04:46:28.796Z,18.58
2023-01-07T04:49:29.968Z,17.83
2023-01-07T04:52:31.837Z,15.65
2023-01-07T04:55:33.492Z,18.88
2023-01-07T04:58:35.331Z,15.52
2023-01-07T05:01:36.905Z,18.33
2023-01-07T05:04:38.420Z,15.48
2023-01-07T05:07:40.106Z,15.82
2023-01-07T05:10:42.922Z,17.00
2023-01-07T05:13:43.766Z,17.05
2023-01-07T05:16:45.356Z,18.10
2023-01-07T05:19:47.245Z,17.58
2023-01-07T05:22:50.387Z,17.88
2023-01-07T05:25:52.701Z,15.77
2023-01-07T05:28:53.992Z,20.25
2023-01-07T05:31:55.279Z,23.35
2023-01-07T05:34:56.756Z,45.67
2023-01-07T05:37:57.837Z,26.27
2023-01-07T05:40:59.294Z,21.08
2023-01-07T05:44:02.248Z,22.00
2023-01-07T05:47:03.077Z,25.42
2023-01-07T05:50:04.177Z,26.90
2023-01-07T05:53:05.280Z,23.58
2023-01-07T05:56:06.319Z,26.52
2023-01-07T05:59:07.013Z,26.08
2023-01-07T06:02:07.864Z,31.42
2023-01-07T06:05:10.343Z,32.67
2023-01-07T06:08:11.656Z,49.95
2023-01-07T06:11:12.796Z,52.20
2023-01-07T06:14:13.853Z,47.35
2023-01-07T06:17:14.869Z,44.83
2023-01-07T06:20:16.066Z,42.72
2023-01-07T06:23:16.812Z,41.78
2023-01-07T06:26:17.525Z,47.70
2023-01-07T06:29:18.779Z,46.85
2023-01-07T06:32:19.471Z,41.95
2023-01-07T06:35:20.366Z,43.63
2023-01-07T06:38:21.680Z,65.28
2023-01-07T06:41:22.590Z,44.00
2023-01-07T06:44:23.860Z,45.72
2023-01-07T06:47:25.595Z,43.30
2023-01-07T06:50:27.022Z,44.72
2023-01-07T06:53:27.768Z,42.05
2023-01-07T06:56:28.641Z,44.50
2023-01-07T06:59:29.546Z,48.83
2023-01-07T07:02:31.469Z,48.05
2023-01-07T07:05:33.342Z,48.45
2023-01-07T07:08:34.248Z,47.13
2023-01-07T07:11:35.068Z,47.67
2023-01-07T07:14:35.929Z,44.47
2023-01-07T07:17:36.640Z,46.33
2023-01-07T07:20:37.581Z,49.15
2023-01-07T07:23:38.698Z,44.58
2023-01-07T07:26:40.184Z,50.60
2023-01-07T07:29:40.781Z,46.13
2023-01-07T07:32:42.755Z,46.75
2023-01-07T07:35:45.156Z,43.92
2023-01-07T07:38:45.913Z,45.70
2023-01-07T07:41:46.746Z,49.33
2023-01-07T07:44:51.516Z,43.58
2023-01-07T07:47:54.771Z,47.90
2023-01-07T07:50:55.731Z,50.13
2023-01-07T07:53:56.721Z,46.95
2023-01-07T07:56:58.490Z,48.72
2023-01-07T07:59:59.773Z,51.00
2023-01-07T08:03:01.245Z,44.85
2023-01-07T08:06:04.745Z,51.78
2023-01-07T08:09:05.547Z,42.75
2023-01-07T08:12:06.610Z,41.60
2023-01-07T08:15:09.352Z,38.50
2023-01-07T08:18:10.753Z,47.60
2023-01-07T08:21:11.824Z,46.35
2023-01-07T08:24:12.604Z,42.78
2023-01-07T08:27:13.303Z,47.08
2023-01-07T08:30:14.181Z,40.15
2023-01-07T08:33:14.959Z,37.65
2023-01-07T08:36:22.962Z,33.92
2023-01-07T08:39:24.321Z,32.45
2023-01-07T08:42:25.599Z,33.83
2023-01-07T08:45:27.054Z,29.10
2023-01-07T08:48:27.838Z,29.60
2023-01-07T08:51:29.022Z,25.40
2023-01-07T08:54:29.742Z,23.80
2023-01-07T08:57:30.737Z,26.15
2023-01-07T09:00:31.937Z,24.00
2023-01-07T09:03:33.611Z,17.67
2023-01-07T09:06:34.373Z,21.10
2023-01-07T09:09:35.664Z,21.60
2023-01-07T09:12:37.324Z,22.35
2023-01-07T09:15:38.358Z,17.65
2023-01-07T09:18:39.313Z,22.02
2023-01-07T09:21:40.198Z,13.55
2023-01-07T09:24:41.190Z,14.65
2023-01-07T09:27:42.606Z,16.50
2023-01-07T09:30:43.753Z,19.52
2023-01-07T09:33:44.737Z,14.18
2023-01-07T09:36:46.008Z,12.50
2023-01-07T09:39:47.179Z,14.48
2023-01-07T09:43:01.796Z,14.57
2023-01-07T09:46:08.909Z,15.77
2023-01-07T09:49:18.597Z,12.57
2023-01-07T09:52:43.948Z,13.10
2023-01-07T09:56:11.155Z,13.55
2023-01-07T09:59:13.374Z,11.80
2023-01-07T10:02:51.836Z,10.48
2023-01-07T10:06:35.124Z,9.27
2023-01-07T10:10:31.025Z,9.73
2023-01-07T10:14:03.108Z,9.43
2023-01-07T10:17:51.351Z,9.35
2023-01-07T10:21:10.821Z,9.50
2023-01-07T10:24:24.268Z,9.27
2023-01-07T10:27:35.707Z,8.73
2023-01-07T10:30:45.155Z,7.93
2023-01-07T10:33:49.277Z,6.80
2023-01-07T10:37:03.026Z,7.18
2023-01-07T10:40:31.515Z,7.88
2023-01-07T10:43:59.990Z,18.00
2023-01-07T10:48:03.673Z,10.30
2023-01-07T10:51:38.373Z,9.13
2023-01-07T10:55:16.492Z,9.55
2023-01-07T10:58:17.549Z,8.85
2023-01-07T11:01:35.035Z,8.50
2023-01-07T11:04:36.261Z,7.97
2023-01-07T11:07:47.873Z,7.63
2023-01-07T11:10:49.343Z,9.32
2023-01-07T11:14:00.236Z,8.60
2023-01-07T11:17:49.191Z,8.88
2023-01-07T11:20:59.283Z,8.75
2023-01-07T11:24:01.997Z,8.55
2023-01-07T11:27:16.683Z,8.48
2023-01-07T11:30:27.814Z,10.32
2023-01-07T11:34:01.615Z,7.95
2023-01-07T11:37:05.670Z,8.73
2023-01-07T11:40:15.765Z,9.05
2023-01-07T11:43:16.929Z,9.00
2023-01-07T11:46:23.378Z,9.25
2023-01-07T11:49:31.205Z,8.40
2023-01-07T11:52:32.910Z,7.93
2023-01-07T11:55:33.750Z,9.07
2023-01-07T11:58:39.745Z,9.57
2023-01-07T12:06:24.140Z,7.90
2023-01-07T12:10:32.106Z,7.60
2023-01-07T12:13:34.610Z,6.88
2023-01-07T12:16:36.542Z,7.05
2023-01-07T12:20:27.512Z,6.53
2023-01-07T12:24:12.901Z,8.48
2023-01-07T12:28:14.875Z,7.93
2023-01-07T12:31:49.988Z,8.35
2023-01-07T12:35:14.919Z,7.28
2023-01-07T12:39:39.806Z,6.82
2023-01-07T12:42:59.714Z,8.55
2023-01-07T12:46:10.971Z,7.63
2023-01-07T12:49:33.906Z,8.02
2023-01-07T12:53:11.345Z,10.40
2023-01-07T12:56:23.112Z,8.77
2023-01-07T12:59:48.000Z,8.30
2023-01-07T13:03:00.589Z,7.53
2023-01-07T13:06:24.775Z,7.53
2023-01-07T13:09:45.037Z,7.13
2023-01-07T13:12:50.077Z,8.48
2023-01-07T13:15:51.663Z,7.97
2023-01-07T13:21:16.208Z,7.55
2023-01-07T13:24:57.030Z,7.95
2023-01-07T13:28:07.547Z,8.68
2023-01-07T13:31:31.999Z,8.05
2023-01-07T13:35:35.046Z,7.97
2023-01-07T13:39:02.282Z,7.93
2023-01-07T13:42:33.887Z,8.45
2023-01-07T13:45:37.331Z,7.53
2023-01-07T13:48:40.936Z,8.07
2023-01-07T13:51:41.468Z,8.82
2023-01-07T13:54:48.227Z,8.77
2023-01-07T13:57:49.115Z,8.02
2023-01-07T14:01:05.271Z,8.57
2023-01-07T14:04:08.710Z,8.60
2023-01-07T14:07:10.126Z,8.13
2023-01-07T14:10:38.136Z,8.80
2023-01-07T14:14:18.026Z,8.40
2023-01-07T14:17:46.229Z,10.43
2023-01-07T14:21:20.075Z,9.25
2023-01-07T14:27:02.373Z,8.65
2023-01-07T14:30:26.469Z,9.07
2023-01-07T14:33:47.102Z,8.05
2023-01-07T14:37:13.725Z,7.97
2023-01-07T14:40:26.891Z,7.63
2023-01-07T14:43:45.908Z,8.05
2023-01-07T14:46:49.067Z,8.50
2023-01-07T14:49:55.780Z,7.80
2023-01-07T14:53:27.473Z,8.52
2023-01-07T14:56:47.765Z,6.72
2023-01-07T15:00:22.149Z,10.13
2023-01-07T15:03:46.833Z,7.90
2023-01-07T15:06:50.526Z,7.22
2023-01-07T15:10:16.236Z,8.88
2023-01-07T15:13:40.094Z,9.90
2023-01-07T15:16:43.119Z,9.70
2023-01-07T15:19:45.289Z,9.98
2023-01-07T15:23:20.949Z,9.70
2023-01-07T15:26:44.401Z,9.43
2023-01-07T15:30:03.463Z,9.30
2023-01-07T15:33:04.723Z,8.95
2023-01-07T15:36:12.938Z,9.82
2023-01-07T15:39:27.605Z,9.77
2023-01-07T15:42:29.969Z,10.25
2023-01-07T15:45:31.059Z,9.98
2023-01-07T15:48:32.232Z,9.73
2023-01-07T15:51:40.173Z,9.90
2023-01-07T15:54:41.408Z,11.32
2023-01-07T15:57:44.184Z,11.80
2023-01-07T16:00:50.483Z,11.23
2023-01-07T16:03:57.036Z,11.25
2023-01-07T16:07:00.741Z,12.73
2023-01-07T16:10:01.864Z,11.95
2023-01-07T16:13:16.270Z,12.63
2023-01-07T16:16:17.627Z,13.07
2023-01-07T16:19:21.231Z,12.98
2023-01-07T16:22:31.744Z,13.98
2023-01-07T16:25:48.768Z,12.35
2023-01-07T16:28:59.406Z,12.45
2023-01-07T16:32:01.516Z,12.55
2023-01-07T16:35:17.050Z,14.00
2023-01-07T16:38:20.691Z,13.88
2023-01-07T16:41:26.102Z,16.73
2023-01-07T16:44:47.042Z,16.15
2023-01-07T16:48:19.704Z,14.90
2023-01-07T16:51:50.320Z,20.45
2023-01-07T16:54:52.051Z,15.70
2023-01-07T16:57:53.101Z,15.80
2023-01-07T17:00:58.506Z,15.70
2023-01-07T17:04:07.614Z,18.55
2023-01-07T17:07:26.524Z,19.45
2023-01-07T17:10:32.457Z,18.80
2023-01-07T17:13:38.302Z,18.42
2023-01-07T17:16:39.751Z,20.30
2023-01-07T17:19:47.741Z,16.58
2023-01-07T17:22:50.039Z,19.27
2023-01-07T17:26:07.849Z,23.30
2023-01-07T17:29:13.427Z,20.15
2023-01-07T17:32:15.162Z,21.02
2023-01-07T17:35:25.018Z,21.85
2023-01-07T17:38:26.160Z,20.63
2023-01-07T17:41:45.677Z,19.63
2023-01-07T17:44:48.540Z,20.13
2023-01-07T17:47:49.815Z,18.25
2023-01-07T17:50:50.559Z,22.95
2023-01-07T17:53:54.161Z,18.20
2023-01-07T17:56:55.228Z,21.98
2023-01-07T17:59:56.136Z,19.17
2023-01-07T18:02:58.434Z,20.13
2023-01-07T18:05:59.508Z,24.90
2023-01-07T18:09:00.517Z,23.02
2023-01-07T18:12:20.036Z,27.60
2023-01-07T18:15:26.762Z,25.77
2023-01-07T18:18:31.601Z,26.63
2023-01-07T18:21:32.388Z,27.08
2023-01-07T18:24:34.881Z,29.38
2023-01-07T18:27:35.979Z,28.08
2023-01-07T18:30:39.146Z,27.63
2023-01-07T18:33:40.222Z,30.35
2023-01-07T18:36:41.979Z,30.52
2023-01-07T18:39:43.090Z,27.38
2023-01-07T18:42:44.339Z,25.83
2023-01-07T18:45:46.811Z,23.42
2023-01-07T18:48:47.996Z,28.42
2023-01-07T18:51:48.914Z,31.08
2023-01-07T18:54:49.755Z,25.67
2023-01-07T18:57:50.911Z,24.83
2023-01-07T19:00:51.931Z,30.48
2023-01-07T19:03:53.096Z,26.90
2023-01-07T19:06:54.448Z,27.65
2023-01-07T19:09:55.510Z,26.38
2023-01-07T19:12:56.219Z,22.42
2023-01-07T19:15:57.137Z,18.83
2023-01-07T19:18:58.087Z,19.38
2023-01-07T19:21:59.232Z,17.50
2023-01-07T19:25:01.013Z,17.60
2023-01-07T19:28:01.920Z,18.48
2023-01-07T19:31:11.006Z,15.02
2023-01-07T19:34:13.590Z,14.25
2023-01-07T19:37:14.617Z,14.77
2023-01-07T19:40:15.661Z,12.90
2023-01-07T19:43:16.925Z,14.80
2023-01-07T19:46:18.668Z,15.70
2023-01-07T19:49:19.603Z,14.68
2023-01-07T19:52:20.923Z,13.68
2023-01-07T19:55:22.719Z,12.80
2023-01-07T19:58:23.730Z,16.38
2023-01-07T20:01:26.901Z,15.80
2023-01-07T20:04:28.448Z,18.65
2023-01-07T20:07:34.098Z,16.23
2023-01-07T20:10:35.305Z,16.25
2023-01-07T20:13:38.822Z,13.80
2023-01-07T20:16:41.881Z,13.50
2023-01-07T20:19:42.882Z,13.63
2023-01-07T20:22:48.720Z,14.30
2023-01-07T20:25:50.009Z,15.02
2023-01-07T20:28:51.582Z,14.63
2023-01-07T20:31:52.672Z,14.05
2023-01-07T20:34:53.904Z,18.38
2023-01-07T20:37:54.862Z,13.18
2023-01-07T20:40:56.193Z,12.45
2023-01-07T20:44:00.963Z,13.10
2023-01-07T20:47:02.428Z,13.48
2023-01-07T20:50:03.913Z,13.30
2023-01-07T20:53:04.964Z,13.52
2023-01-07T20:56:07.194Z,13.50
2023-01-07T20:59:09.220Z,16.38
2023-01-07T21:02:18.041Z,17.70
2023-01-07T21:05:21.169Z,17.45
2023-01-07T21:08:22.218Z,15.82
2023-01-07T21:11:24.270Z,11.95
2023-01-07T21:14:25.345Z,14.70
2023-01-07T21:17:25.915Z,15.60
2023-01-07T21:20:26.750Z,13.68
2023-01-07T21:23:28.243Z,18.30
2023-01-07T21:26:29.520Z,17.38
2023-01-07T21:29:30.198Z,16.63
2023-01-07T21:32:31.585Z,14.73
2023-01-07T21:35:32.584Z,16.70
2023-01-07T21:38:33.577Z,16.27
2023-01-07T21:41:34.573Z,18.05
2023-01-07T21:44:36.170Z,18.25
2023-01-07T21:47:37.109Z,20.15
2023-01-07T21:50:38.558Z,14.95
2023-01-07T21:53:39.346Z,12.15
2023-01-07T21:56:40.563Z,15.07
2023-01-07T21:59:41.346Z,17.65
2023-01-07T22:02:42.147Z,19.88
2023-01-07T22:05:42.802Z,20.42
2023-01-07T22:08:43.649Z,21.90
2023-01-07T22:11:45.264Z,20.25
2023-01-07T22:14:46.804Z,20.08
2023-01-07T22:17:47.590Z,19.70
2023-01-07T22:20:55.968Z,24.23
2023-01-07T22:23:57.604Z,20.13
2023-01-07T22:26:58.658Z,22.27
2023-01-07T22:30:00.689Z,21.27
2023-01-07T22:33:01.686Z,25.75
2023-01-07T22:36:03.052Z,24.10
2023-01-07T22:39:20.058Z,22.65
2023-01-07T22:42:34.346Z,20.02
2023-01-07T22:46:06.611Z,20.85
2023-01-07T22:49:07.710Z,22.38
2023-01-07T22:52:10.740Z,28.63
2023-01-07T22:55:12.992Z,32.65
2023-01-07T22:58:14.684Z,33.45
2023-01-07T23:01:18.205Z,30.52
2023-01-07T23:04:19.787Z,29.23
2023-01-07T23:07:21.053Z,29.15
2023-01-07T23:10:21.746Z,26.77
2023-01-07T23:13:22.640Z,21.52
2023-01-07T23:16:23.318Z,21.52
2023-01-07T23:19:24.210Z,22.38
2023-01-07T23:22:24.936Z,26.85
2023-01-07T23:25:25.737Z,21.92
2023-01-07T23:28:26.501Z,16.50
2023-01-07T23:31:27.386Z,19.70
2023-01-07T23:34:28.201Z,22.13
2023-01-07T23:37:28.973Z,21.58
2023-01-07T23:40:30.293Z,23.92
2023-01-07T23:43:32.632Z,24.10
2023-01-07T23:46:33.501Z,23.83
2023-01-07T23:49:34.424Z,23.98
2023-01-07T23:52:35.140Z,25.55
2023-01-07T23:55:36.272Z,23.95
2023-01-07T23:58:38.535Z,25.98
